createdAt,value
2019-04-14T00:01:45.501Z,1.60
2019-04-14T00:06:50.375Z,1.60
2019-04-14T00:11:54.790Z,1.80
2019-04-14T00:16:59.639Z,1.90
2019-04-14T00:22:03.445Z,2.00
2019-04-14T00:27:08.442Z,2.00
2019-04-14T00:32:12.403Z,2.10
2019-04-14T00:37:20.580Z,2.10
2019-04-14T00:42:28.372Z,2.20
2019-04-14T00:47:48.394Z,2.20
2019-04-14T00:52:41.579Z,2.00
2019-04-14T00:57:46.311Z,1.80
2019-04-14T01:02:50.104Z,1.60
2019-04-14T01:07:54.413Z,1.60
2019-04-14T01:12:58.253Z,1.70
2019-04-14T01:18:01.921Z,1.70
2019-04-14T01:23:06.334Z,1.80
2019-04-14T01:28:11.240Z,2.00
2019-04-14T01:33:16.154Z,2.00
2019-04-14T01:38:21.114Z,2.00
2019-04-14T01:43:25.649Z,2.00
2019-04-14T01:48:30.049Z,2.10
2019-04-14T01:53:42.202Z,2.10
2019-04-14T01:58:47.543Z,2.10
2019-04-14T02:03:52.000Z,2.00
2019-04-14T02:08:56.857Z,1.90
2019-04-14T02:14:01.593Z,1.70
2019-04-14T02:19:06.612Z,1.70
2019-04-14T02:24:11.372Z,1.80
2019-04-14T02:29:15.077Z,1.80
2019-04-14T02:39:54.064Z,1.70
2019-04-14T02:44:59.995Z,1.80
2019-04-14T02:49:56.574Z,1.70
2019-04-14T02:55:04.769Z,1.70
2019-04-14T03:00:16.672Z,1.80
2019-04-14T03:10:28.095Z,1.60
2019-04-14T03:15:31.827Z,1.60
2019-04-14T03:20:32.251Z,1.70
2019-04-14T03:25:43.004Z,1.70
2019-04-14T03:36:50.323Z,1.70
2019-04-14T03:41:17.449Z,1.70
2019-04-14T03:51:28.355Z,1.80
2019-04-14T03:56:09.170Z,1.90
2019-04-14T04:01:10.518Z,1.90
2019-04-14T04:06:14.256Z,1.70
2019-04-14T04:11:17.906Z,1.60
2019-04-14T04:16:24.432Z,1.50
2019-04-14T04:21:29.823Z,1.50
2019-04-14T04:26:38.611Z,1.60
2019-04-14T04:31:50.395Z,1.70
2019-04-14T04:37:12.794Z,1.70
2019-04-14T04:42:17.561Z,1.70
2019-04-14T04:47:21.319Z,1.60
2019-04-14T04:52:25.759Z,1.70
2019-04-14T04:57:30.434Z,1.80
2019-04-14T05:02:35.273Z,1.90
2019-04-14T05:07:38.918Z,2.00
2019-04-14T05:12:45.542Z,2.00
2019-04-14T05:17:49.924Z,2.10
2019-04-14T05:22:53.489Z,2.20
2019-04-14T05:27:57.994Z,2.20
2019-04-14T05:33:02.997Z,2.20
2019-04-14T05:38:06.716Z,1.90
2019-04-14T05:43:11.352Z,2.10
2019-04-14T05:48:16.094Z,2.00
2019-04-14T05:53:19.751Z,2.20
2019-04-14T05:58:23.494Z,2.30
2019-04-14T06:03:27.778Z,2.10
2019-04-14T06:08:31.371Z,2.10
2019-04-14T06:13:34.928Z,2.30
2019-04-14T06:18:38.554Z,2.40
2019-04-14T06:23:42.113Z,2.60
2019-04-14T06:28:45.683Z,2.70
2019-04-14T06:33:50.932Z,2.80
2019-04-14T06:39:12.370Z,2.70
2019-04-14T06:44:15.980Z,2.90
2019-04-14T06:49:19.651Z,3.00
2019-04-14T06:54:23.378Z,2.70
2019-04-14T06:59:27.000Z,2.70
2019-04-14T07:04:30.599Z,2.90
2019-04-14T07:09:34.205Z,3.30
2019-04-14T07:14:37.770Z,3.60
2019-04-14T07:19:41.441Z,3.70
2019-04-14T07:24:45.004Z,3.90
2019-04-14T07:29:53.230Z,4.00
2019-04-14T07:35:14.794Z,4.00
2019-04-14T07:40:26.682Z,4.30
2019-04-14T07:45:50.014Z,4.50
2019-04-14T07:51:13.591Z,4.90
2019-04-14T07:56:18.912Z,5.10
2019-04-14T08:01:25.950Z,5.30
2019-04-14T08:06:29.611Z,5.50
2019-04-14T08:11:33.218Z,5.90
2019-04-14T08:16:36.793Z,6.10
2019-04-14T08:21:40.517Z,6.50
2019-04-14T08:26:44.294Z,6.30
2019-04-14T08:31:47.981Z,6.40
2019-04-14T08:36:51.621Z,6.50
2019-04-14T08:41:56.994Z,6.80
2019-04-14T08:47:14.422Z,6.80
2019-04-14T08:52:19.692Z,7.00
2019-04-14T08:57:43.373Z,7.00
2019-04-14T09:02:51.563Z,6.60
2019-04-14T09:07:59.591Z,6.30
2019-04-14T09:13:03.197Z,6.30
2019-04-14T09:18:06.749Z,6.00
2019-04-14T09:23:10.358Z,5.90
2019-04-14T09:28:14.039Z,6.00
2019-04-14T09:33:17.886Z,6.10
2019-04-14T09:38:21.477Z,5.70
2019-04-14T09:43:25.124Z,5.50
2019-04-14T09:48:28.850Z,5.50
2019-04-14T09:53:32.555Z,5.60
2019-04-14T09:58:36.164Z,5.90
2019-04-14T10:03:39.743Z,6.20
2019-04-14T10:08:43.400Z,6.30
2019-04-14T10:13:47.022Z,6.30
2019-04-14T10:18:50.701Z,6.70
2019-04-14T10:23:54.288Z,6.80
2019-04-14T10:28:57.973Z,6.60
2019-04-14T10:34:01.553Z,6.50
2019-04-14T10:39:07.044Z,7.00
2019-04-14T10:44:10.698Z,7.50
2019-04-14T10:49:14.419Z,7.70
2019-04-14T10:54:18.063Z,7.80
2019-04-14T10:59:21.912Z,7.70
2019-04-14T11:04:25.500Z,7.60
2019-04-14T11:09:29.193Z,7.80
2019-04-14T11:14:32.828Z,8.00
2019-04-14T11:19:36.451Z,8.10
2019-04-14T11:24:40.092Z,8.30
2019-04-14T11:29:43.760Z,8.30
2019-04-14T11:35:01.108Z,8.20
2019-04-14T11:40:08.042Z,8.50
2019-04-14T11:45:11.757Z,8.60
2019-04-14T11:50:15.505Z,8.70
2019-04-14T11:55:19.233Z,9.10
2019-04-14T12:00:30.943Z,9.20
2019-04-14T12:05:51.612Z,9.00
2019-04-14T12:10:55.441Z,9.10
2019-04-14T12:15:59.596Z,9.20
2019-04-14T12:21:03.557Z,8.30
2019-04-14T12:26:07.202Z,8.10
2019-04-14T12:31:11.372Z,8.70
2019-04-14T12:36:15.197Z,9.10
2019-04-14T12:41:24.177Z,9.10
2019-04-14T12:46:35.073Z,8.80
2019-04-14T12:51:40.302Z,9.10
2019-04-14T12:56:43.988Z,9.40
2019-04-14T13:02:01.933Z,9.60
2019-04-14T13:07:05.704Z,9.70
2019-04-14T13:12:10.438Z,9.80
2019-04-14T13:17:15.317Z,10.00
2019-04-14T13:22:18.973Z,10.00
2019-04-14T13:27:23.335Z,10.20
2019-04-14T13:32:35.704Z,10.20
2019-04-14T13:37:32.465Z,10.40
2019-04-14T13:42:36.061Z,10.60
2019-04-14T13:47:39.717Z,10.20
2019-04-14T13:52:46.991Z,10.10
2019-04-14T13:57:48.668Z,9.90
2019-04-14T14:02:52.252Z,10.50
2019-04-14T14:07:55.925Z,10.40
2019-04-14T14:13:01.274Z,10.30
2019-04-14T14:18:21.879Z,10.50
2019-04-14T14:23:43.391Z,10.30
2019-04-14T14:28:47.062Z,9.80
2019-04-14T14:33:50.740Z,9.90
2019-04-14T14:38:54.533Z,10.00
2019-04-14T14:43:58.344Z,10.00
2019-04-14T14:49:03.758Z,10.00
2019-04-14T14:54:07.717Z,9.90
2019-04-14T14:59:11.280Z,9.90
2019-04-14T15:04:15.046Z,9.90
2019-04-14T15:09:18.775Z,10.00
2019-04-14T15:14:23.119Z,10.00
2019-04-14T15:19:26.771Z,9.90
2019-04-14T15:24:30.536Z,10.00
2019-04-14T15:29:34.165Z,10.10
2019-04-14T15:34:37.812Z,10.00
2019-04-14T15:39:41.472Z,9.90
2019-04-14T15:44:45.177Z,9.80
2019-04-14T15:49:48.849Z,9.70
2019-04-14T15:54:52.555Z,9.70
2019-04-14T16:00:00.488Z,9.70
2019-04-14T16:05:12.459Z,9.70
2019-04-14T16:10:26.226Z,9.70
2019-04-14T16:15:31.580Z,9.80
2019-04-14T16:20:37.638Z,9.80
2019-04-14T16:25:42.956Z,9.90
2019-04-14T16:30:53.853Z,9.80
2019-04-14T16:35:57.775Z,9.80
2019-04-14T16:41:01.404Z,9.80
2019-04-14T16:46:05.146Z,9.80
2019-04-14T16:51:10.463Z,9.80
2019-04-14T16:56:18.777Z,9.70
2019-04-14T17:01:26.897Z,9.60
2019-04-14T17:06:30.725Z,9.60
2019-04-14T17:11:34.518Z,9.50
2019-04-14T17:16:56.215Z,9.30
2019-04-14T17:22:01.561Z,9.00
2019-04-14T17:27:06.831Z,8.90
2019-04-14T17:32:28.778Z,8.80
2019-04-14T17:37:50.520Z,8.30
2019-04-14T17:42:58.973Z,7.80
2019-04-14T17:48:07.140Z,7.90
2019-04-14T17:53:12.532Z,7.90
2019-04-14T17:58:17.901Z,7.80
2019-04-14T18:03:32.198Z,7.80
2019-04-14T18:08:53.876Z,7.60
2019-04-14T18:14:11.478Z,7.50
2019-04-14T18:19:28.469Z,7.00
2019-04-14T18:24:41.641Z,7.00
2019-04-14T18:29:41.466Z,6.50
2019-04-14T18:34:46.846Z,6.20
2019-04-14T18:40:07.274Z,6.40
2019-04-14T18:45:19.586Z,6.50
2019-04-14T18:50:25.831Z,6.50
2019-04-14T18:55:49.558Z,6.10
2019-04-14T19:00:55.233Z,5.70
2019-04-14T19:05:59.224Z,5.40
2019-04-14T19:11:13.646Z,5.30
2019-04-14T19:16:19.375Z,5.40
2019-04-14T19:21:24.637Z,5.30
2019-04-14T19:26:28.568Z,5.20
2019-04-14T19:31:32.493Z,5.20
2019-04-14T19:36:37.612Z,5.10
2019-04-14T19:41:41.352Z,4.40
2019-04-14T19:46:45.387Z,4.50
2019-04-14T19:51:49.065Z,4.40
2019-04-14T19:56:52.735Z,4.40
2019-04-14T20:01:56.500Z,3.90
2019-04-14T20:07:00.167Z,3.90
2019-04-14T20:12:04.068Z,3.70
2019-04-14T20:17:09.406Z,3.80
2019-04-14T20:22:21.070Z,3.60
2019-04-14T20:27:26.437Z,3.40
2019-04-14T20:32:31.709Z,3.60
2019-04-14T20:37:35.374Z,3.60
2019-04-14T20:42:38.965Z,3.50
2019-04-14T20:47:42.680Z,3.50
2019-04-14T20:52:46.267Z,3.50
2019-04-14T20:57:49.941Z,3.50
2019-04-14T21:03:11.635Z,3.50
2019-04-14T21:08:19.651Z,3.50
2019-04-14T21:13:27.833Z,3.40
2019-04-14T21:18:33.089Z,3.20
2019-04-14T21:23:41.134Z,2.90
2019-04-14T21:28:52.439Z,2.60
2019-04-14T21:34:16.337Z,2.60
2019-04-14T21:39:40.505Z,2.40
2019-04-14T21:44:43.395Z,2.40
2019-04-14T21:49:47.064Z,2.50
2019-04-14T21:54:50.716Z,2.20
2019-04-14T21:59:56.023Z,2.20
2019-04-14T22:05:04.017Z,2.20
2019-04-14T22:10:12.862Z,2.10
2019-04-14T22:15:16.892Z,2.00
2019-04-14T22:20:20.478Z,1.50
2019-04-14T22:25:24.515Z,1.80
2019-04-14T22:30:28.227Z,1.90
2019-04-14T22:35:31.900Z,1.80
2019-04-14T22:40:36.474Z,1.90
2019-04-14T22:45:40.081Z,1.80
2019-04-14T22:50:43.729Z,1.80
2019-04-14T22:55:47.441Z,1.60
2019-04-14T23:00:52.853Z,1.50
2019-04-14T23:06:00.847Z,1.60
2019-04-14T23:11:09.291Z,1.20
2019-04-14T23:16:23.437Z,1.20
2019-04-14T23:21:34.834Z,1.20
2019-04-14T23:26:51.466Z,1.40
2019-04-14T23:31:43.769Z,1.30
2019-04-14T23:36:47.353Z,1.30
2019-04-14T23:41:51.141Z,1.10
2019-04-14T23:46:54.739Z,1.10
2019-04-14T23:51:58.404Z,1.10
2019-04-14T23:57:06.156Z,1.00
